Time;durP1;ratioP1;P1;durP2;ratioP2;P2;SDS_P1;SDS_P2;PMS_P1;PMS_P2;Temp;Humidity;BMP_temperature;BMP_pressure;BME280_temperature;BME280_humidity;BME280_pressure;Samples;Min_cycle;Max_cycle;Signal;HPM_P1;HPM_P2
2024/03/11 00:00:15;;;;;;;;;;;5.30;99.90;;;;;;5041072;28;20078;-68
2024/03/11 00:02:42;;;;;;;0.60;0.60;;;5.30;99.90;;;;;;5038811;28;20393;-69
2024/03/11 00:05:08;;;;;;;0.80;0.80;;;5.30;99.90;;;;;;5040679;28;20079;-68
2024/03/11 00:07:37;;;;;;;0.60;0.60;;;5.30;99.90;;;;;;5043955;28;20048;-68
2024/03/11 00:10:05;;;;;;;0.68;0.68;;;5.20;99.90;;;;;;5037791;28;20032;-69
2024/03/11 00:12:38;;;;;;;0.80;0.80;;;5.20;99.90;;;;;;5045878;28;20071;-68
2024/03/11 00:15:07;;;;;;;0.60;0.60;;;5.10;99.90;;;;;;5039359;28;20025;-71
2024/03/11 00:17:36;;;;;;;0.60;0.60;;;5.10;99.90;;;;;;5046198;28;20031;-68
2024/03/11 00:20:02;;;;;;;0.65;0.65;;;5.10;99.90;;;;;;5048774;28;20035;-69
2024/03/11 00:22:28;;;;;;;0.65;0.65;;;5.10;99.90;;;;;;5046673;28;20146;-68
2024/03/11 00:24:53;;;;;;;0.52;0.52;;;5.10;99.90;;;;;;5045271;28;20492;-67
2024/03/11 00:27:21;;;;;;;0.77;0.77;;;5.10;99.90;;;;;;5046483;28;20108;-69
2024/03/11 00:29:48;;;;;;;0.60;0.60;;;5.20;99.90;;;;;;5043131;28;20086;-68
2024/03/11 00:32:14;;;;;;;0.70;0.70;;;5.10;99.90;;;;;;5042002;28;20033;-68
2024/03/11 00:34:41;;;;;;;0.77;0.60;;;5.10;99.90;;;;;;5044783;28;20025;-69
2024/03/11 00:37:07;;;;;;;0.70;0.70;;;5.10;99.90;;;;;;5046047;28;20021;-70
2024/03/11 00:39:34;;;;;;;0.70;0.70;;;5.10;99.90;;;;;;5054778;28;20079;-70
2024/03/11 00:42:00;;;;;;;0.80;0.80;;;5.00;99.90;;;;;;5054142;28;20036;-71
2024/03/11 00:44:26;;;;;;;1.23;0.80;;;5.00;99.90;;;;;;5057093;28;20036;-69
2024/03/11 00:46:51;;;;;;;0.60;0.60;;;5.00;99.90;;;;;;5058648;28;20084;-71
2024/03/11 00:49:19;;;;;;;0.70;0.70;;;4.90;99.90;;;;;;5052856;28;20033;-71
2024/03/11 00:51:45;;;;;;;0.70;0.70;;;4.90;99.90;;;;;;5063036;28;20112;-72
2024/03/11 00:54:11;;;;;;;0.80;0.80;;;4.90;99.90;;;;;;5059191;28;20049;-71
2024/03/11 00:56:38;;;;;;;3.40;2.15;;;4.90;99.90;;;;;;5061647;28;20447;-70
2024/03/11 00:59:04;;;;;;;1.58;0.90;;;4.90;99.90;;;;;;5059555;28;20634;-70
2024/03/11 01:01:30;;;;;;;1.02;1.00;;;4.90;99.90;;;;;;5064026;28;20033;-71
2024/03/11 01:03:58;;;;;;;2.08;1.17;;;4.80;99.90;;;;;;5061354;28;20119;-73
2024/03/11 01:06:24;;;;;;;2.58;0.93;;;4.80;99.90;;;;;;5062032;28;20032;-72
2024/03/11 01:08:50;;;;;;;6.60;2.08;;;4.80;99.90;;;;;;5059889;28;20029;-70
2024/03/11 01:11:15;;;;;;;30.58;8.32;;;4.80;99.90;;;;;;5056463;28;20044;-72
2024/03/11 01:13:41;;;;;;;67.05;20.83;;;4.80;99.90;;;;;;5056762;28;20056;-71
2024/03/11 01:16:10;;;;;;;37.58;12.88;;;4.70;99.90;;;;;;5054189;28;20147;-68
2024/03/11 01:18:35;;;;;;;7.95;4.38;;;4.70;99.90;;;;;;5047269;28;20082;-69
2024/03/11 01:21:02;;;;;;;4.15;2.65;;;4.80;99.90;;;;;;5034962;28;20037;-69
2024/03/11 01:23:28;;;;;;;3.35;2.53;;;4.70;99.90;;;;;;5040165;28;20029;-69
2024/03/11 01:25:54;;;;;;;3.40;2.00;;;4.70;99.90;;;;;;5045113;28;20183;-68
2024/03/11 01:28:20;;;;;;;2.17;1.95;;;4.70;99.90;;;;;;5041926;28;20260;-69
2024/03/11 01:30:46;;;;;;;2.70;2.50;;;4.70;99.90;;;;;;5043335;28;20040;-71
2024/03/11 01:33:12;;;;;;;2.50;2.30;;;4.50;99.90;;;;;;5041383;28;20025;-70
2024/03/11 01:35:40;;;;;;;1.88;1.77;;;4.50;99.90;;;;;;5043785;28;20698;-68
2024/03/11 01:38:08;;;;;;;1.30;1.20;;;4.40;99.90;;;;;;5043299;28;20039;-69
2024/03/11 01:40:34;;;;;;;1.00;1.00;;;4.30;99.90;;;;;;5039510;28;20071;-69
2024/03/11 01:43:00;;;;;;;0.95;0.85;;;4.20;99.90;;;;;;5044863;28;20033;-70
2024/03/11 01:45:26;;;;;;;1.05;1.00;;;4.20;99.90;;;;;;5041877;28;20083;-69
2024/03/11 01:47:52;;;;;;;3.83;1.10;;;4.10;99.90;;;;;;5045395;28;20036;-69
2024/03/11 01:50:18;;;;;;;1.02;1.02;;;4.10;99.90;;;;;;5035611;28;20136;-69
2024/03/11 01:52:48;;;;;;;1.77;1.67;;;4.10;99.90;;;;;;5044354;28;20036;-69
2024/03/11 01:55:15;;;;;;;1.73;1.63;;;4.00;99.90;;;;;;5039932;28;20044;-68
2024/03/11 01:57:42;;;;;;;1.50;1.33;;;3.90;99.90;;;;;;5035365;28;20025;-68
2024/03/11 02:00:08;;;;;;;1.00;1.00;;;3.80;99.90;;;;;;5047188;28;20029;-69
2024/03/11 02:02:40;;;;;;;1.10;1.10;;;3.70;99.90;;;;;;5044081;28;20083;-68
2024/03/11 02:05:09;;;;;;;1.00;1.00;;;3.60;99.90;;;;;;5042551;28;20028;-68
2024/03/11 02:07:36;;;;;;;0.88;0.88;;;3.70;99.90;;;;;;5043117;28;20120;-68
2024/03/11 02:10:06;;;;;;;1.10;1.00;;;3.80;99.90;;;;;;5034650;28;20029;-69
2024/03/11 02:12:32;;;;;;;0.90;0.90;;;3.80;99.90;;;;;;5043516;28;20132;-67
2024/03/11 02:14:59;;;;;;;1.65;0.90;;;3.70;99.90;;;;;;5042072;28;20112;-70
2024/03/11 02:17:24;;;;;;;0.90;0.90;;;3.70;99.90;;;;;;5044882;28;20035;-70
2024/03/11 02:19:51;;;;;;;2.22;1.45;;;3.70;99.90;;;;;;5043003;28;20433;-68
2024/03/11 02:22:17;;;;;;;1.20;1.10;;;3.60;99.90;;;;;;5044018;28;20247;-67
2024/03/11 02:24:44;;;;;;;1.10;1.00;;;3.60;99.90;;;;;;5037361;28;20036;-66
2024/03/11 02:27:10;;;;;;;0.95;0.95;;;3.60;99.90;;;;;;5040337;28;20032;-69
2024/03/11 02:29:38;;;;;;;1.00;1.00;;;3.60;99.90;;;;;;5037028;28;20405;-67
2024/03/11 02:32:04;;;;;;;1.13;1.00;;;3.60;99.90;;;;;;5043375;28;20028;-67
2024/03/11 02:34:29;;;;;;;0.80;0.80;;;3.60;99.90;;;;;;5046058;28;20319;-68
2024/03/11 02:36:56;;;;;;;0.95;0.95;;;3.60;99.90;;;;;;5037783;28;20142;-67
2024/03/11 02:39:21;;;;;;;0.80;0.80;;;3.60;99.90;;;;;;5043447;28;20429;-69
2024/03/11 02:41:49;;;;;;;1.10;1.10;;;3.60;99.90;;;;;;5042820;28;20037;-67
2024/03/11 02:44:16;;;;;;;2.00;0.88;;;3.60;99.90;;;;;;5040120;28;20390;-68
2024/03/11 02:46:42;;;;;;;1.65;0.80;;;3.60;99.90;;;;;;5036673;28;20037;-67
2024/03/11 02:49:09;;;;;;;1.88;0.80;;;3.70;99.90;;;;;;5041687;28;20028;-68
2024/03/11 02:51:34;;;;;;;0.77;0.77;;;3.70;99.90;;;;;;5039214;28;20479;-70
2024/03/11 02:54:01;;;;;;;1.15;0.80;;;3.70;99.90;;;;;;5033076;28;20048;-69
2024/03/11 02:56:27;;;;;;;0.60;0.60;;;3.70;99.90;;;;;;5039463;28;20679;-67
2024/03/11 02:58:54;;;;;;;2.10;0.93;;;3.70;99.90;;;;;;5039698;28;20107;-69
2024/03/11 03:01:19;;;;;;;0.80;0.80;;;3.60;99.90;;;;;;5036848;28;20620;-69
2024/03/11 03:03:47;;;;;;;0.85;0.85;;;3.60;99.90;;;;;;5042162;28;20037;-69
2024/03/11 03:06:16;;;;;;;0.90;0.90;;;3.60;99.90;;;;;;5038775;28;20036;-68
2024/03/11 03:08:45;;;;;;;1.27;1.05;;;3.60;99.90;;;;;;5037725;28;20302;-69
2024/03/11 03:11:12;;;;;;;0.50;0.50;;;3.60;99.90;;;;;;5039740;28;20091;-70
2024/03/11 03:13:38;;;;;;;0.80;0.80;;;3.70;99.90;;;;;;5039836;28;20480;-67
2024/03/11 03:16:04;;;;;;;1.75;1.10;;;3.60;99.90;;;;;;5038513;28;20052;-69
2024/03/11 03:18:30;;;;;;;3.35;3.15;;;3.60;99.90;;;;;;5041794;28;20033;-68
2024/03/11 03:20:55;;;;;;;5.20;4.70;;;3.50;99.90;;;;;;5042036;28;20040;-68
2024/03/11 03:23:21;;;;;;;7.82;7.22;;;3.50;99.90;;;;;;5038781;28;20025;-69
2024/03/11 03:25:47;;;;;;;14.52;13.43;;;3.50;99.90;;;;;;5043626;28;20037;-68
2024/03/11 03:28:13;;;;;;;19.55;18.05;;;3.40;99.90;;;;;;5039331;28;20502;-68
2024/03/11 03:30:39;;;;;;;8.98;8.38;;;3.30;99.90;;;;;;5042672;28;20040;-68
2024/03/11 03:33:05;;;;;;;8.20;7.70;;;3.30;99.90;;;;;;5041089;28;20102;-68
2024/03/11 03:35:31;;;;;;;3.67;3.47;;;3.30;99.90;;;;;;5038096;28;20095;-69
2024/03/11 03:37:57;;;;;;;3.50;3.30;;;3.20;99.90;;;;;;5044182;28;20090;-68
2024/03/11 03:40:25;;;;;;;1.90;1.80;;;3.20;99.90;;;;;;5046628;28;20083;-69
2024/03/11 03:42:51;;;;;;;1.63;1.58;;;3.20;99.90;;;;;;5045017;28;20521;-68
2024/03/11 03:45:18;;;;;;;10.07;8.68;;;3.10;99.90;;;;;;5041514;28;20601;-69
2024/03/11 03:47:45;;;;;;;10.18;9.48;;;3.00;99.90;;;;;;5043502;28;20036;-69
2024/03/11 03:50:11;;;;;;;11.27;10.48;;;3.00;99.90;;;;;;5043370;28;20505;-70
2024/03/11 03:52:46;;;;;;;5.53;5.13;;;3.10;99.90;;;;;;5041855;28;20056;-68
2024/03/11 03:55:12;;;;;;;4.63;4.32;;;3.10;99.90;;;;;;5042946;28;20029;-68
2024/03/11 03:57:38;;;;;;;2.50;2.30;;;3.10;99.90;;;;;;5045547;28;20033;-68
2024/03/11 04:00:06;;;;;;;1.80;1.70;;;3.20;99.90;;;;;;5045619;28;20017;-69
2024/03/11 04:02:32;;;;;;;1.05;1.05;;;3.10;99.90;;;;;;5046492;28;20072;-67
2024/03/11 04:05:02;;;;;;;1.10;1.10;;;3.10;99.90;;;;;;5043297;28;20114;-69
2024/03/11 04:07:28;;;;;;;1.08;1.00;;;3.20;99.90;;;;;;5045910;28;20486;-68
2024/03/11 04:09:55;;;;;;;0.93;0.93;;;3.10;99.90;;;;;;5043207;28;20444;-68
2024/03/11 04:12:21;;;;;;;1.40;1.30;;;3.20;99.90;;;;;;5043652;28;20463;-68
2024/03/11 04:14:47;;;;;;;1.13;1.02;;;3.20;99.90;;;;;;5048025;28;20025;-68
2024/03/11 04:17:14;;;;;;;1.10;1.00;;;3.20;99.90;;;;;;5042863;28;20025;-69
2024/03/11 04:19:40;;;;;;;1.42;1.33;;;3.30;99.90;;;;;;5047067;28;20120;-69
2024/03/11 04:22:06;;;;;;;1.00;1.00;;;3.30;99.90;;;;;;5044317;28;20100;-68
2024/03/11 04:24:32;;;;;;;0.80;0.80;;;3.30;99.90;;;;;;5042448;28;20044;-68
2024/03/11 04:26:59;;;;;;;0.98;0.95;;;3.20;99.90;;;;;;5043748;28;20081;-68
2024/03/11 04:29:27;;;;;;;1.00;1.00;;;3.10;99.90;;;;;;5043794;28;20159;-68
2024/03/11 04:31:53;;;;;;;1.02;1.02;;;3.10;99.90;;;;;;5043688;28;20041;-68
2024/03/11 04:34:20;;;;;;;1.05;0.98;;;3.20;99.90;;;;;;5046660;28;20504;-68
2024/03/11 04:36:46;;;;;;;2.05;0.98;;;3.20;99.90;;;;;;5044529;28;20013;-68
2024/03/11 04:39:14;;;;;;;0.93;0.90;;;3.00;99.90;;;;;;5043609;28;20474;-68
2024/03/11 04:41:42;;;;;;;0.88;0.88;;;3.10;99.90;;;;;;5043263;28;20124;-68
2024/03/11 04:44:08;;;;;;;0.90;0.90;;;3.00;99.90;;;;;;5045769;28;20498;-68
2024/03/11 04:46:38;;;;;;;0.98;0.90;;;3.10;99.90;;;;;;5041700;28;20046;-68
2024/03/11 04:49:05;;;;;;;1.48;0.90;;;2.90;99.90;;;;;;5046493;28;20048;-69
2024/03/11 04:51:32;;;;;;;1.05;1.05;;;2.70;99.90;;;;;;5042872;28;20048;-68
2024/03/11 04:53:57;;;;;;;0.93;0.93;;;2.60;99.90;;;;;;5046541;28;20052;-69
2024/03/11 04:56:23;;;;;;;1.20;1.20;;;2.60;99.90;;;;;;5042397;28;20118;-68
2024/03/11 04:58:49;;;;;;;0.82;0.82;;;2.60;99.90;;;;;;5042793;28;20683;-68
2024/03/11 05:01:15;;;;;;;1.00;1.00;;;2.60;99.90;;;;;;5037506;28;20075;-68
2024/03/11 05:03:41;;;;;;;1.10;1.00;;;2.50;99.90;;;;;;5043474;28;20507;-67
2024/03/11 05:06:06;;;;;;;0.90;0.90;;;2.60;99.90;;;;;;5043094;28;20102;-67
2024/03/11 05:08:32;;;;;;;0.98;0.98;;;2.50;99.90;;;;;;5042128;28;20025;-67
2024/03/11 05:10:58;;;;;;;3.53;3.00;;;2.50;99.90;;;;;;5040677;28;20552;-69
2024/03/11 05:13:24;;;;;;;1.77;1.73;;;2.40;99.90;;;;;;5043020;28;20155;-68
2024/03/11 05:15:50;;;;;;;2.00;1.90;;;2.40;99.90;;;;;;5045961;28;20111;-68
2024/03/11 05:18:16;;;;;;;2.53;1.77;;;2.40;99.90;;;;;;5045074;28;20029;-67
2024/03/11 05:20:42;;;;;;;2.90;1.80;;;2.40;99.90;;;;;;5040180;28;20025;-67
2024/03/11 05:23:08;;;;;;;1.73;1.35;;;2.40;99.90;;;;;;5038806;28;20032;-66
2024/03/11 05:25:34;;;;;;;3.15;1.30;;;2.40;99.90;;;;;;5043713;28;20036;-67
2024/03/11 05:28:00;;;;;;;1.55;1.40;;;2.40;99.90;;;;;;5040170;28;20036;-69
2024/03/11 05:30:29;;;;;;;1.42;1.08;;;2.40;99.90;;;;;;5044946;28;20711;-67
2024/03/11 05:32:56;;;;;;;2.00;1.40;;;2.30;99.90;;;;;;5041033;28;20021;-67
2024/03/11 05:35:21;;;;;;;1.67;1.30;;;2.30;99.90;;;;;;5041627;28;20418;-67
2024/03/11 05:37:48;;;;;;;3.13;2.38;;;2.30;99.90;;;;;;5044529;28;20017;-67
2024/03/11 05:40:14;;;;;;;29.35;14.63;;;2.20;99.90;;;;;;5044416;28;20067;-68
2024/03/11 05:42:44;;;;;;;47.83;23.27;;;2.10;99.90;;;;;;5042963;28;20399;-67
2024/03/11 05:45:13;;;;;;;50.67;24.95;;;2.20;99.90;;;;;;5040311;28;20021;-67
2024/03/11 05:47:41;;;;;;;25.88;15.60;;;2.10;99.90;;;;;;5038598;28;20022;-68
2024/03/11 05:50:09;;;;;;;29.42;16.48;;;2.20;99.90;;;;;;5042270;28;20021;-68
2024/03/11 05:52:35;;;;;;;9.43;5.68;;;2.20;99.90;;;;;;5041258;28;20037;-68
2024/03/11 05:55:11;;;;;;;3.25;2.63;;;2.20;99.90;;;;;;5038671;28;20493;-69
2024/03/11 05:57:37;;;;;;;1.75;1.50;;;2.00;99.90;;;;;;5038950;28;20371;-68
2024/03/11 06:00:09;;;;;;;1.92;1.27;;;1.50;99.90;;;;;;5044800;28;20025;-67
2024/03/11 06:02:38;;;;;;;1.05;1.05;;;1.20;99.90;;;;;;5045213;28;20208;-68
2024/03/11 06:05:05;;;;;;;1.50;1.40;;;1.20;99.90;;;;;;5040566;28;20418;-68
2024/03/11 06:07:48;;;;;;;1.33;1.27;;;1.30;99.90;;;;;;5037940;28;20406;-69
2024/03/11 06:10:49;;;;;;;3.95;1.70;;;1.50;99.90;;;;;;5044369;28;20037;-68
2024/03/11 06:13:29;;;;;;;1.95;1.50;;;1.50;99.90;;;;;;5045231;28;20102;-68
2024/03/11 06:16:39;;;;;;;1.77;1.45;;;1.60;99.90;;;;;;5043349;28;20045;-69
2024/03/11 06:19:15;;;;;;;2.72;2.10;;;1.70;99.90;;;;;;5042454;28;20056;-70
2024/03/11 06:22:18;;;;;;;4.63;2.53;;;1.80;99.90;;;;;;5046269;28;20025;-71
2024/03/11 06:25:06;;;;;;;3.15;2.65;;;1.90;99.90;;;;;;5047176;28;20072;-69
2024/03/11 06:27:59;;;;;;;2.20;1.92;;;1.90;99.90;;;;;;5046075;28;20386;-71
2024/03/11 06:31:34;;;;;;;2.47;2.28;;;1.90;99.90;;;;;;5043266;28;20265;-70
2024/03/11 06:37:17;;;;;;;3.63;2.67;;;1.90;99.90;;;;;;5033304;28;20033;-68
2024/03/11 06:39:43;;;;;;;2.42;2.22;;;2.00;99.90;;;;;;5041716;28;20119;-68
2024/03/11 06:42:09;;;;;;;5.07;2.85;;;2.10;99.90;;;;;;5039085;28;20032;-69
2024/03/11 06:44:35;;;;;;;4.65;2.60;;;2.00;99.90;;;;;;5041488;28;20036;-68
2024/03/11 06:47:01;;;;;;;2.20;2.00;;;2.10;99.90;;;;;;5040270;28;20499;-71
2024/03/11 06:49:30;;;;;;;1.73;1.63;;;2.20;99.90;;;;;;5041998;28;20037;-70
2024/03/11 06:51:55;;;;;;;1.80;1.70;;;2.10;99.90;;;;;;5038552;28;20031;-68
2024/03/11 06:54:21;;;;;;;3.00;2.63;;;2.10;99.90;;;;;;5038746;28;20640;-68
2024/03/11 06:56:47;;;;;;;1.90;1.80;;;2.00;99.90;;;;;;5039094;28;20025;-69
2024/03/11 06:59:12;;;;;;;2.53;1.88;;;1.90;99.90;;;;;;5042532;28;20103;-68
2024/03/11 07:01:39;;;;;;;2.03;1.80;;;2.00;99.90;;;;;;5027720;28;20103;-71
2024/03/11 07:04:04;;;;;;;1.45;1.38;;;2.10;99.90;;;;;;5021649;28;20017;-70
2024/03/11 07:06:30;;;;;;;2.30;1.92;;;2.20;99.90;;;;;;5018246;28;20033;-69
2024/03/11 07:08:56;;;;;;;2.20;2.00;;;2.20;99.90;;;;;;5019333;28;20036;-68
2024/03/11 07:11:21;;;;;;;1.80;1.70;;;2.30;99.90;;;;;;5015682;28;20038;-68
2024/03/11 07:13:47;;;;;;;1.70;1.58;;;2.40;99.90;;;;;;5022271;28;20029;-69
2024/03/11 07:16:14;;;;;;;2.20;2.10;;;2.50;99.90;;;;;;5020835;28;20025;-68
2024/03/11 07:18:42;;;;;;;1.90;1.75;;;2.60;99.90;;;;;;5021072;28;20013;-68
2024/03/11 07:21:11;;;;;;;1.83;1.73;;;2.60;99.90;;;;;;5019171;28;20026;-68
2024/03/11 07:23:36;;;;;;;1.42;1.33;;;2.80;99.90;;;;;;5018814;28;20040;-69
2024/03/11 07:26:02;;;;;;;2.15;1.30;;;2.80;99.90;;;;;;5018969;28;20397;-68
2024/03/11 07:28:29;;;;;;;3.00;1.95;;;3.00;99.90;;;;;;5017869;28;20041;-68
2024/03/11 07:30:58;;;;;;;2.15;1.50;;;3.10;99.90;;;;;;5021827;28;20705;-69
2024/03/11 07:33:24;;;;;;;1.00;1.00;;;3.10;99.90;;;;;;5035810;28;20032;-68
2024/03/11 07:35:53;;;;;;;1.40;1.40;;;3.30;99.90;;;;;;5042672;28;20037;-68
2024/03/11 07:38:19;;;;;;;1.13;1.13;;;3.50;99.90;;;;;;5039287;28;20029;-67
2024/03/11 07:40:45;;;;;;;1.10;1.10;;;3.70;99.90;;;;;;5042222;28;20029;-68
2024/03/11 07:43:11;;;;;;;1.67;1.42;;;3.80;99.90;;;;;;5038282;28;20618;-68
2024/03/11 07:45:38;;;;;;;1.55;1.45;;;3.80;99.90;;;;;;5039078;28;20565;-69
2024/03/11 07:48:06;;;;;;;1.80;1.63;;;3.80;99.90;;;;;;5041400;28;20021;-69
2024/03/11 07:50:31;;;;;;;1.73;1.63;;;3.90;99.90;;;;;;5039437;28;20391;-69
2024/03/11 07:52:57;;;;;;;1.70;1.60;;;4.00;99.90;;;;;;5041323;28;20098;-70
2024/03/11 07:55:24;;;;;;;1.45;1.40;;;4.00;99.90;;;;;;5040182;28;20048;-69
2024/03/11 07:57:53;;;;;;;1.73;1.40;;;4.10;99.90;;;;;;5039564;28;20040;-69
2024/03/11 08:00:21;;;;;;;1.30;1.20;;;4.20;99.90;;;;;;5037848;28;20048;-69
2024/03/11 08:02:50;;;;;;;0.65;0.65;;;4.30;99.90;;;;;;5038179;28;20041;-71
2024/03/11 08:05:17;;;;;;;1.10;1.10;;;4.70;99.90;;;;;;5037539;28;20033;-70
2024/03/11 08:07:47;;;;;;;0.80;0.80;;;5.00;99.90;;;;;;5034566;28;20521;-69
2024/03/11 08:10:14;;;;;;;0.98;0.98;;;5.30;99.90;;;;;;5040014;28;20487;-70
2024/03/11 08:12:43;;;;;;;0.90;0.90;;;5.60;99.90;;;;;;5042347;28;20025;-69
2024/03/11 08:15:14;;;;;;;0.90;0.90;;;5.80;99.90;;;;;;5033911;28;20029;-69
2024/03/11 08:17:43;;;;;;;1.05;1.05;;;6.00;99.90;;;;;;5039680;28;20067;-69
2024/03/11 08:20:10;;;;;;;0.98;0.98;;;6.10;99.90;;;;;;5029533;28;20035;-69
2024/03/11 08:22:45;;;;;;;1.15;1.00;;;6.30;99.90;;;;;;5040219;28;20345;-69
2024/03/11 08:25:11;;;;;;;0.55;0.50;;;6.30;99.90;;;;;;5040791;28;20056;-69
2024/03/11 08:27:40;;;;;;;1.17;1.08;;;6.40;99.90;;;;;;5037797;28;20025;-69
2024/03/11 08:30:09;;;;;;;0.52;0.52;;;6.70;99.90;;;;;;5043869;28;20033;-70
2024/03/11 08:32:35;;;;;;;1.00;1.00;;;6.80;99.90;;;;;;5045012;28;20029;-70
2024/03/11 08:35:01;;;;;;;1.13;1.00;;;6.90;99.90;;;;;;5044396;28;20027;-72
2024/03/11 08:37:27;;;;;;;0.80;0.80;;;7.00;99.90;;;;;;5040947;28;20029;-69
2024/03/11 08:39:53;;;;;;;0.65;0.65;;;7.20;99.90;;;;;;5040434;28;20025;-69
2024/03/11 08:42:19;;;;;;;0.77;0.77;;;7.40;99.90;;;;;;5046720;28;20029;-70
2024/03/11 08:44:45;;;;;;;0.63;0.60;;;7.40;99.90;;;;;;5037288;28;20112;-69
2024/03/11 08:47:14;;;;;;;0.90;0.90;;;7.60;99.90;;;;;;5042717;28;20029;-69
2024/03/11 08:49:40;;;;;;;0.85;0.85;;;7.50;99.90;;;;;;5039364;28;20519;-70
2024/03/11 08:52:06;;;;;;;0.80;0.80;;;7.50;99.90;;;;;;5040486;28;20114;-70
2024/03/11 08:54:32;;;;;;;0.88;0.88;;;7.70;99.90;;;;;;5039348;28;20087;-70
2024/03/11 08:56:59;;;;;;;1.00;1.00;;;7.70;99.90;;;;;;5045742;28;20059;-70
2024/03/11 08:59:26;;;;;;;1.20;1.10;;;7.80;99.90;;;;;;5043613;28;20055;-71
2024/03/11 09:01:57;;;;;;;1.00;1.00;;;7.90;99.90;;;;;;5039229;28;20560;-69
2024/03/11 09:04:26;;;;;;;0.70;0.70;;;8.00;99.90;;;;;;5039258;28;20505;-69
2024/03/11 09:06:54;;;;;;;0.73;0.73;;;8.20;99.90;;;;;;5042424;28;20032;-71
2024/03/11 09:09:24;;;;;;;1.50;1.40;;;8.30;99.90;;;;;;5043321;28;20031;-70
2024/03/11 09:11:56;;;;;;;0.90;0.90;;;8.50;99.90;;;;;;5036871;28;20330;-69
2024/03/11 09:14:25;;;;;;;0.88;0.88;;;8.50;99.90;;;;;;5041762;28;20032;-70
2024/03/11 09:16:52;;;;;;;2.47;1.15;;;8.60;99.90;;;;;;5041949;28;20029;-71
2024/03/11 09:19:20;;;;;;;1.10;1.10;;;8.70;99.90;;;;;;5034708;28;20060;-70
2024/03/11 09:21:47;;;;;;;0.73;0.73;;;9.00;99.90;;;;;;5038211;28;20029;-70
2024/03/11 09:24:13;;;;;;;0.80;0.80;;;9.20;99.90;;;;;;5043816;28;20120;-72
2024/03/11 09:26:39;;;;;;;0.75;0.75;;;9.20;99.90;;;;;;5045630;28;20484;-69
2024/03/11 09:29:05;;;;;;;0.60;0.60;;;9.30;99.90;;;;;;5047196;28;20078;-69
2024/03/11 09:31:31;;;;;;;0.70;0.70;;;9.20;99.90;;;;;;5044636;28;20377;-70
2024/03/11 09:33:56;;;;;;;0.88;0.88;;;9.10;99.90;;;;;;5044780;28;20195;-70
2024/03/11 09:36:22;;;;;;;0.65;0.65;;;9.00;99.90;;;;;;5043408;28;20048;-69
2024/03/11 09:38:48;;;;;;;1.40;0.95;;;9.30;99.90;;;;;;5041079;28;20066;-69
2024/03/11 09:41:15;;;;;;;0.70;0.68;;;9.30;99.90;;;;;;5045715;28;20028;-71
2024/03/11 09:43:48;;;;;;;0.70;0.70;;;9.40;99.90;;;;;;5040758;28;20040;-71
2024/03/11 09:46:23;;;;;;;0.63;0.63;;;9.50;99.90;;;;;;5036368;28;20022;-70
2024/03/11 09:48:53;;;;;;;0.70;0.70;;;9.60;99.90;;;;;;5039676;28;20381;-70
2024/03/11 09:51:23;;;;;;;1.00;1.00;;;9.50;99.90;;;;;;5041599;28;20048;-70
2024/03/11 09:53:53;;;;;;;0.95;0.88;;;9.60;99.90;;;;;;5044090;28;20037;-70
2024/03/11 09:56:22;;;;;;;1.05;1.05;;;9.60;99.90;;;;;;5044950;28;20032;-71
2024/03/11 09:59:03;;;;;;;0.80;0.80;;;9.70;99.90;;;;;;5047825;28;20025;-71
2024/03/11 10:01:31;;;;;;;0.85;0.85;;;9.80;99.90;;;;;;5044470;28;20037;-71
2024/03/11 10:04:00;;;;;;;0.80;0.80;;;10.00;99.90;;;;;;5047599;28;20373;-71
2024/03/11 10:06:27;;;;;;;1.02;0.93;;;9.90;99.90;;;;;;5039747;28;20298;-72
2024/03/11 10:08:53;;;;;;;0.70;0.70;;;10.10;99.90;;;;;;5043734;28;20489;-71
2024/03/11 10:11:20;;;;;;;0.80;0.80;;;10.20;98.60;;;;;;5039027;28;20029;-72
2024/03/11 10:13:55;;;;;;;2.53;0.50;;;10.20;99.90;;;;;;5038767;28;20487;-71
2024/03/11 10:16:24;;;;;;;2.30;0.70;;;10.40;99.90;;;;;;5037317;28;20033;-70
2024/03/11 10:19:00;;;;;;;0.70;0.70;;;10.50;99.90;;;;;;5036638;28;20047;-70
2024/03/11 10:21:28;;;;;;;1.63;0.93;;;10.50;96.90;;;;;;5045586;28;20029;-71
2024/03/11 10:23:58;;;;;;;1.55;1.08;;;10.50;99.90;;;;;;5040066;28;20160;-71
2024/03/11 10:26:33;;;;;;;1.75;0.90;;;10.60;99.90;;;;;;5042380;28;20100;-72
2024/03/11 10:29:00;;;;;;;1.20;1.00;;;10.80;99.90;;;;;;5039248;28;20091;-72
2024/03/11 10:31:27;;;;;;;0.90;0.90;;;11.00;99.90;;;;;;5040537;28;20045;-71
2024/03/11 10:34:10;;;;;;;1.67;0.80;;;10.80;95.60;;;;;;5042202;28;20533;-71
2024/03/11 10:36:41;;;;;;;0.55;0.35;;;10.90;98.70;;;;;;5041052;28;20036;-72
2024/03/11 10:39:18;;;;;;;1.55;0.50;;;10.80;99.90;;;;;;5035907;28;20064;-70
2024/03/11 10:41:49;;;;;;;1.25;0.57;;;11.00;98.10;;;;;;5042501;28;20171;-71
2024/03/11 10:44:18;;;;;;;0.50;0.50;;;11.00;95.90;;;;;;5042017;28;20036;-74
2024/03/11 10:46:43;;;;;;;;;;;11.00;97.10;;;;;;5044063;28;20024;-72
2024/03/11 10:49:13;;;;;;;2.17;0.60;;;10.90;96.30;;;;;;5044673;28;19909;-70
2024/03/11 10:51:45;;;;;;;0.63;0.63;;;11.00;97.80;;;;;;5036992;28;20029;-71
2024/03/11 10:54:28;;;;;;;0.50;0.50;;;11.10;96.00;;;;;;5035688;28;20037;-72
2024/03/11 10:56:55;;;;;;;0.57;0.57;;;11.30;92.10;;;;;;5043209;28;20053;-72
2024/03/11 10:59:34;;;;;;;0.45;0.45;;;11.20;91.70;;;;;;5040140;28;20517;-72
2024/03/11 11:02:04;;;;;;;0.50;0.50;;;11.20;94.00;;;;;;5043788;28;20037;-73
2024/03/11 11:04:36;;;;;;;0.50;0.50;;;11.10;83.00;;;;;;5039702;28;20033;-70
2024/03/11 11:07:03;;;;;;;0.35;0.30;;;11.40;82.70;;;;;;5038077;28;20140;-71
2024/03/11 11:09:35;;;;;;;0.30;0.30;;;11.40;85.60;;;;;;5042687;28;20032;-70
2024/03/11 11:12:03;;;;;;;0.98;0.50;;;11.30;82.00;;;;;;5040562;28;20036;-73
2024/03/11 11:14:29;;;;;;;0.50;0.50;;;11.50;81.70;;;;;;5040317;28;20030;-70
2024/03/11 11:16:57;;;;;;;0.55;0.55;;;11.50;77.60;;;;;;5038633;28;20034;-70
2024/03/11 11:19:32;;;;;;;0.40;0.40;;;11.60;86.20;;;;;;5039445;28;20442;-70
2024/03/11 11:22:00;;;;;;;0.68;0.60;;;11.80;75.90;;;;;;5038058;28;20029;-71
2024/03/11 11:24:29;;;;;;;;;;;11.70;82.30;;;;;;5040396;28;20025;-70
2024/03/11 11:26:59;;;;;;;0.30;0.30;;;11.90;85.60;;;;;;5039044;28;19983;-70
2024/03/11 11:29:31;;;;;;;0.47;0.47;;;11.70;79.40;;;;;;5044046;28;20043;-71
2024/03/11 11:32:08;;;;;;;0.20;0.20;;;11.80;78.90;;;;;;5039026;28;20032;-71
2024/03/11 11:34:48;;;;;;;0.35;0.35;;;12.10;87.00;;;;;;5043661;28;20025;-70
2024/03/11 11:37:23;;;;;;;0.30;0.30;;;11.80;72.50;;;;;;5039225;28;20271;-70
2024/03/11 11:39:52;;;;;;;0.40;0.40;;;11.60;70.90;;;;;;5043241;28;20031;-70
2024/03/11 11:42:40;;;;;;;1.55;0.63;;;11.60;73.30;;;;;;5041297;28;20581;-71
2024/03/11 11:45:12;;;;;;;0.60;0.60;;;11.80;82.20;;;;;;5043728;28;20099;-72
2024/03/11 11:47:38;;;;;;;0.68;0.68;;;12.00;81.40;;;;;;5041841;28;20037;-70
2024/03/11 11:50:26;;;;;;;0.60;0.60;;;12.10;74.30;;;;;;5041762;28;20019;-70
2024/03/11 11:53:02;;;;;;;0.60;0.60;;;12.10;76.50;;;;;;5038205;28;20130;-70
2024/03/11 11:55:32;;;;;;;1.65;0.60;;;12.10;75.00;;;;;;5041514;28;20398;-70
2024/03/11 11:58:10;;;;;;;0.60;0.60;;;12.20;74.00;;;;;;5043905;28;20056;-71
2024/03/11 12:00:42;;;;;;;0.82;0.75;;;12.20;75.00;;;;;;5042232;28;20398;-71
2024/03/11 12:03:30;;;;;;;0.50;0.50;;;12.30;75.70;;;;;;5048926;28;20029;-71
2024/03/11 12:06:04;;;;;;;1.15;0.40;;;12.30;75.30;;;;;;5042901;28;20473;-72
2024/03/11 12:08:32;;;;;;;0.57;0.57;;;12.10;68.80;;;;;;5048847;28;20546;-69
2024/03/11 12:11:14;;;;;;;0.95;0.50;;;12.20;72.10;;;;;;5045409;28;20024;-70
2024/03/11 12:13:42;;;;;;;0.40;0.40;;;12.40;75.80;;;;;;5042470;28;20490;-70
2024/03/11 12:16:10;;;;;;;0.43;0.43;;;12.50;68.70;;;;;;5045325;28;20090;-69
2024/03/11 12:18:39;;;;;;;0.50;0.50;;;12.30;70.20;;;;;;5043745;28;20071;-71
2024/03/11 12:21:07;;;;;;;0.50;0.50;;;12.40;69.80;;;;;;5049421;28;20022;-69
2024/03/11 12:23:34;;;;;;;0.47;0.47;;;12.50;73.90;;;;;;5049140;28;20106;-70
2024/03/11 12:26:00;;;;;;;0.70;0.50;;;12.40;67.80;;;;;;5046257;28;20736;-72
2024/03/11 12:28:26;;;;;;;0.30;0.30;;;12.30;67.80;;;;;;5044064;28;20117;-71
2024/03/11 12:30:52;;;;;;;0.35;0.28;;;12.30;67.20;;;;;;5041701;28;20136;-71
2024/03/11 12:33:19;;;;;;;0.20;0.20;;;12.30;65.50;;;;;;5047042;28;20025;-71
2024/03/11 12:35:50;;;;;;;0.85;0.50;;;12.40;64.80;;;;;;5043530;28;20056;-71
2024/03/11 12:38:16;;;;;;;0.47;0.47;;;12.30;64.20;;;;;;5040305;28;20083;-70
2024/03/11 12:40:46;;;;;;;0.25;0.25;;;12.40;68.60;;;;;;5050570;28;20028;-71
2024/03/11 12:43:30;;;;;;;0.77;0.60;;;12.50;64.00;;;;;;5046406;28;20060;-71
2024/03/11 12:46:00;;;;;;;0.30;0.30;;;12.50;69.10;;;;;;5044939;28;20305;-70
2024/03/11 12:48:28;;;;;;;0.65;0.65;;;12.60;66.00;;;;;;5048265;28;20029;-69
2024/03/11 12:50:55;;;;;;;;;;;12.70;65.50;;;;;;5049264;28;20115;-69
2024/03/11 12:53:24;;;;;;;1.08;0.57;;;12.40;64.70;;;;;;5038769;28;19921;-71
2024/03/11 12:56:01;;;;;;;2.00;0.55;;;12.30;66.60;;;;;;5048991;28;20017;-71
2024/03/11 12:58:27;;;;;;;0.68;0.68;;;12.50;68.50;;;;;;5041591;28;20107;-70
2024/03/11 13:01:09;;;;;;;1.20;0.50;;;12.80;73.40;;;;;;5048781;28;20681;-71
2024/03/11 13:03:35;;;;;;;0.68;0.68;;;12.80;61.60;;;;;;5041032;28;20033;-70
2024/03/11 13:06:03;;;;;;;0.65;0.22;;;12.80;61.50;;;;;;5044932;28;20021;-70